createdAt,value
2022-08-03T00:02:19.365Z,101590.28
2022-08-03T00:04:52.715Z,101583.50
2022-08-03T00:07:20.386Z,101585.22
2022-08-03T00:09:48.193Z,101583.69
2022-08-03T00:12:16.406Z,101583.25
2022-08-03T00:14:44.254Z,101588.09
2022-08-03T00:17:11.866Z,101590.22
2022-08-03T00:19:39.483Z,101591.38
2022-08-03T00:22:07.352Z,101589.09
2022-08-03T00:24:36.417Z,101593.06
2022-08-03T00:27:04.216Z,101592.91
2022-08-03T00:29:31.744Z,101598.63
2022-08-03T00:32:00.117Z,101585.19
2022-08-03T00:34:36.206Z,101589.28
2022-08-03T00:37:10.916Z,101585.66
2022-08-03T00:39:38.540Z,101593.56
2022-08-03T00:42:06.979Z,101588.06
2022-08-03T00:44:41.026Z,101586.34
2022-08-03T00:47:10.440Z,101591.56
2022-08-03T00:49:41.498Z,101594.66
2022-08-03T00:52:10.681Z,101594.22
2022-08-03T00:54:39.070Z,101592.56
2022-08-03T00:57:07.887Z,101597.94
2022-08-03T00:59:37.020Z,101592.69
2022-08-03T01:02:04.550Z,101598.22
2022-08-03T01:04:31.964Z,101598.63
2022-08-03T01:07:27.994Z,101588.34
2022-08-03T01:09:55.803Z,101593.72
2022-08-03T01:12:48.803Z,101601.22
2022-08-03T01:15:43.545Z,101598.69
2022-08-03T01:18:43.424Z,101595.03
2022-08-03T01:21:21.705Z,101598.09
2022-08-03T01:23:54.156Z,101589.66
2022-08-03T01:26:21.834Z,101589.25
2022-08-03T01:29:15.934Z,101594.03
2022-08-03T01:33:02.686Z,101590.25
2022-08-03T01:35:06.686Z,101586.44
2022-08-03T01:37:48.958Z,101587.56
2022-08-03T01:40:19.532Z,101592.94
2022-08-03T01:42:49.595Z,101590.66
2022-08-03T01:45:18.802Z,101593.19
2022-08-03T01:47:48.506Z,101596.16
2022-08-03T01:50:21.111Z,101589.97
2022-08-03T01:52:49.313Z,101590.66
2022-08-03T01:55:20.386Z,101595.16
2022-08-03T01:58:05.936Z,101587.84
2022-08-03T02:00:38.747Z,101587.28
2022-08-03T02:03:08.629Z,101593.63
2022-08-03T02:05:39.120Z,101593.34
2022-08-03T02:08:10.675Z,101589.22
2022-08-03T02:10:42.338Z,101596.88
2022-08-03T02:13:11.117Z,101595.63
2022-08-03T02:15:41.400Z,101597.03
2022-08-03T02:18:11.617Z,101600.72
2022-08-03T02:20:42.024Z,101592.38
2022-08-03T02:23:10.447Z,101599.88
2022-08-03T02:25:45.483Z,101604.13
2022-08-03T02:28:19.489Z,101600.00
2022-08-03T02:30:53.923Z,101606.06
2022-08-03T02:33:43.341Z,101612.75
2022-08-03T02:36:13.470Z,101605.25
2022-08-03T02:38:43.862Z,101605.25
2022-08-03T02:41:18.251Z,101606.91
2022-08-03T02:44:05.367Z,101609.19
2022-08-03T02:46:39.114Z,101613.97
2022-08-03T02:49:40.899Z,101614.84
2022-08-03T02:51:59.079Z,101618.75
2022-08-03T02:54:28.273Z,101618.06
2022-08-03T02:56:58.723Z,101623.72
2022-08-03T02:59:27.924Z,101624.00
2022-08-03T03:01:55.820Z,101624.13
2022-08-03T03:04:25.728Z,101625.28
2022-08-03T03:07:01.810Z,101623.41
2022-08-03T03:09:40.462Z,101629.16
2022-08-03T03:12:11.473Z,101626.09
2022-08-03T03:14:39.927Z,101624.38
2022-08-03T03:17:08.909Z,101632.72
2022-08-03T03:19:39.860Z,101628.81
2022-08-03T03:22:08.668Z,101627.41
2022-08-03T03:24:36.593Z,101634.03
2022-08-03T03:27:04.469Z,101636.31
2022-08-03T03:29:39.491Z,101637.28
2022-08-03T03:32:08.332Z,101635.88
2022-08-03T03:34:37.328Z,101640.25
2022-08-03T03:37:05.987Z,101636.03
2022-08-03T03:39:33.767Z,101639.00
2022-08-03T03:42:01.421Z,101637.44
2022-08-03T03:44:29.761Z,101644.78
2022-08-03T03:47:00.261Z,101644.91
2022-08-03T03:49:28.051Z,101643.50
2022-08-03T03:51:55.910Z,101646.19
2022-08-03T03:54:25.486Z,101649.97
2022-08-03T03:56:56.958Z,101642.03
2022-08-03T03:59:24.821Z,101651.38
2022-08-03T04:01:59.142Z,101646.97
2022-08-03T04:04:45.082Z,101651.75
2022-08-03T04:07:31.489Z,101649.50
2022-08-03T04:10:20.557Z,101651.03
2022-08-03T04:12:51.250Z,101655.81
2022-08-03T04:15:24.162Z,101660.03
2022-08-03T04:17:56.054Z,101653.38
2022-08-03T04:20:32.673Z,101665.81
2022-08-03T04:23:01.812Z,101658.31
2022-08-03T04:25:32.971Z,101668.50
2022-08-03T04:28:19.701Z,101671.44
2022-08-03T04:30:52.550Z,101661.25
2022-08-03T04:33:21.450Z,101667.19
2022-08-03T04:36:01.741Z,101667.31
2022-08-03T04:38:36.836Z,101661.94
2022-08-03T04:41:06.086Z,101676.41
2022-08-03T04:43:34.304Z,101674.56
2022-08-03T04:46:02.951Z,101673.31
2022-08-03T04:48:30.811Z,101674.00
2022-08-03T04:51:00.876Z,101677.53
2022-08-03T04:53:28.786Z,101680.94
2022-08-03T04:55:56.270Z,101674.59
2022-08-03T04:58:29.068Z,101678.97
2022-08-03T05:00:56.552Z,101682.81
2022-08-03T05:03:25.207Z,101676.00
2022-08-03T05:06:09.782Z,101665.34
2022-08-03T05:08:46.047Z,101661.38
2022-08-03T05:11:16.500Z,101658.31
2022-08-03T05:13:46.537Z,101658.69
2022-08-03T05:16:14.794Z,101662.88
2022-08-03T05:18:43.369Z,101667.69
2022-08-03T05:21:12.513Z,101672.75
2022-08-03T05:23:41.472Z,101676.81
2022-08-03T05:26:09.135Z,101675.81
2022-08-03T05:28:36.813Z,101673.97
2022-08-03T05:31:04.400Z,101676.25
2022-08-03T05:33:31.881Z,101680.19
2022-08-03T05:36:03.563Z,101691.38
2022-08-03T05:38:35.004Z,101685.94
2022-08-03T05:41:21.021Z,101683.13
2022-08-03T05:43:55.137Z,101691.53
2022-08-03T05:46:23.381Z,101676.72
2022-08-03T05:48:51.286Z,101673.31
2022-08-03T05:51:18.857Z,101683.16
2022-08-03T05:53:46.428Z,101677.47
2022-08-03T05:56:16.285Z,101679.28
2022-08-03T05:58:46.108Z,101682.50
2022-08-03T06:01:14.869Z,101681.56
2022-08-03T06:03:42.731Z,101675.25
2022-08-03T06:06:11.697Z,101672.56
2022-08-03T06:08:41.140Z,101674.47
2022-08-03T06:11:09.018Z,101676.56
2022-08-03T06:13:37.223Z,101668.84
2022-08-03T06:16:05.491Z,101671.69
2022-08-03T06:18:33.358Z,101675.78
2022-08-03T06:21:14.390Z,101675.19
2022-08-03T06:23:52.595Z,101680.47
2022-08-03T06:26:21.811Z,101684.75
2022-08-03T06:28:52.598Z,101684.69
2022-08-03T06:31:33.348Z,101683.25
2022-08-03T06:34:32.396Z,101684.38
2022-08-03T06:36:52.400Z,101670.59
2022-08-03T06:39:23.567Z,101676.13
2022-08-03T06:41:53.548Z,101678.94
2022-08-03T06:44:21.316Z,101687.22
2022-08-03T06:46:49.030Z,101687.88
2022-08-03T06:49:17.171Z,101693.16
2022-08-03T06:52:04.908Z,101683.81
2022-08-03T06:54:33.207Z,101686.94
2022-08-03T06:57:01.337Z,101684.16
2022-08-03T07:00:07.919Z,101688.25
2022-08-03T07:02:19.868Z,101691.41
2022-08-03T07:04:48.687Z,101693.34
2022-08-03T07:07:17.492Z,101691.63
2022-08-03T07:09:56.753Z,101692.53
2022-08-03T07:12:27.536Z,101694.72
2022-08-03T07:15:00.272Z,101690.56
2022-08-03T07:17:32.398Z,101676.78
2022-08-03T07:20:03.233Z,101685.53
2022-08-03T07:22:30.989Z,101685.78
2022-08-03T07:24:59.290Z,101688.22
2022-08-03T07:27:28.705Z,101688.41
2022-08-03T07:29:58.808Z,101685.16
2022-08-03T07:32:27.147Z,101685.75
2022-08-03T07:34:58.439Z,101689.19
2022-08-03T07:37:28.932Z,101677.16
2022-08-03T07:39:57.227Z,101673.75
2022-08-03T07:42:24.866Z,101683.91
2022-08-03T07:44:52.574Z,101677.03
2022-08-03T07:47:23.448Z,101681.84
2022-08-03T07:49:51.948Z,101682.56
2022-08-03T07:52:38.376Z,101684.16
2022-08-03T07:55:07.070Z,101691.31
2022-08-03T07:57:35.392Z,101696.56
2022-08-03T08:00:06.950Z,101690.41
2022-08-03T08:02:35.083Z,101681.22
2022-08-03T08:05:05.747Z,101685.09
2022-08-03T08:07:34.338Z,101679.59
2022-08-03T08:10:02.765Z,101691.13
2022-08-03T08:12:30.378Z,101696.84
2022-08-03T08:14:57.945Z,101698.59
2022-08-03T08:17:25.472Z,101703.38
2022-08-03T08:19:57.946Z,101708.25
2022-08-03T08:22:29.881Z,101706.75
2022-08-03T08:24:59.570Z,101711.59
2022-08-03T08:28:30.124Z,101714.44
2022-08-03T08:30:19.637Z,101714.44
2022-08-03T08:32:48.822Z,101712.47
2022-08-03T08:35:17.901Z,101715.84
2022-08-03T08:37:50.893Z,101709.81
2022-08-03T08:40:22.997Z,101708.69
2022-08-03T08:42:58.466Z,101708.41
2022-08-03T08:45:27.765Z,101710.97
2022-08-03T08:48:01.639Z,101713.81
2022-08-03T08:50:31.971Z,101710.28
2022-08-03T08:53:02.025Z,101711.81
2022-08-03T08:55:30.653Z,101709.53
2022-08-03T08:58:20.917Z,101712.16
2022-08-03T09:00:49.488Z,101710.25
2022-08-03T09:03:22.671Z,101708.63
2022-08-03T09:05:59.724Z,101713.59
2022-08-03T09:08:28.546Z,101718.13
2022-08-03T09:10:56.135Z,101715.44
2022-08-03T09:13:24.295Z,101707.56
2022-08-03T09:16:24.632Z,101715.63
2022-08-03T09:18:54.313Z,101714.25
2022-08-03T09:21:34.781Z,101711.06
2022-08-03T09:24:08.423Z,101711.09
2022-08-03T09:26:52.118Z,101712.72
2022-08-03T09:29:22.894Z,101696.81
2022-08-03T09:32:00.829Z,101710.53
2022-08-03T09:34:28.835Z,101705.63
2022-08-03T09:36:58.394Z,101707.47
2022-08-03T09:39:41.391Z,101709.81
2022-08-03T09:42:11.186Z,101706.06
2022-08-03T09:44:47.763Z,101705.13
2022-08-03T09:47:28.389Z,101704.50
2022-08-03T09:50:07.271Z,101709.38
2022-08-03T09:52:51.929Z,101700.75
2022-08-03T09:56:04.996Z,101703.69
2022-08-03T09:58:11.663Z,101707.59
2022-08-03T10:01:01.923Z,101704.94
2022-08-03T10:03:36.600Z,101710.03
2022-08-03T10:06:28.869Z,101696.50
2022-08-03T10:09:15.015Z,101696.00
2022-08-03T10:11:44.328Z,101703.97
2022-08-03T10:14:19.627Z,101703.47
2022-08-03T10:16:48.418Z,101705.97
2022-08-03T10:19:16.530Z,101698.91
2022-08-03T10:21:51.470Z,101698.91
2022-08-03T10:24:26.182Z,101706.47
2022-08-03T10:27:01.535Z,101697.34
2022-08-03T10:29:32.351Z,101699.53
2022-08-03T10:32:04.428Z,101695.81
2022-08-03T10:34:40.321Z,101703.91
2022-08-03T10:37:15.430Z,101697.50
2022-08-03T10:39:54.236Z,101697.16
2022-08-03T10:42:24.748Z,101701.34
2022-08-03T10:45:13.165Z,101697.81
2022-08-03T10:47:41.265Z,101699.34
2022-08-03T10:50:10.109Z,101694.94
2022-08-03T10:53:06.690Z,101702.84
2022-08-03T10:55:53.871Z,101696.22
2022-08-03T10:58:37.073Z,101694.22
2022-08-03T11:01:06.231Z,101684.44
2022-08-03T11:03:48.920Z,101687.28
2022-08-03T11:06:27.237Z,101694.31
2022-08-03T11:09:11.218Z,101697.63
2022-08-03T11:11:43.714Z,101692.63
2022-08-03T11:14:14.721Z,101688.00
2022-08-03T11:17:06.172Z,101687.31
2022-08-03T11:19:56.575Z,101686.00
2022-08-03T11:22:46.098Z,101684.75
2022-08-03T11:25:54.156Z,101684.38
2022-08-03T11:28:25.296Z,101685.41
2022-08-03T11:30:53.014Z,101678.69
2022-08-03T11:33:31.160Z,101686.34
2022-08-03T11:36:01.399Z,101679.88
2022-08-03T11:38:28.955Z,101689.41
2022-08-03T11:40:56.547Z,101694.34
2022-08-03T11:43:31.256Z,101692.13
2022-08-03T11:46:07.872Z,101682.69
2022-08-03T11:48:47.458Z,101682.56
2022-08-03T11:51:26.170Z,101684.59
2022-08-03T11:53:53.596Z,101684.00
2022-08-03T11:56:21.297Z,101694.31
2022-08-03T11:59:19.366Z,101702.09
2022-08-03T12:01:46.104Z,101702.56
2022-08-03T12:04:13.606Z,101702.09
2022-08-03T12:06:56.005Z,101702.94
2022-08-03T12:09:23.780Z,101697.34
2022-08-03T12:11:59.581Z,101700.53
2022-08-03T12:14:49.089Z,101710.88
2022-08-03T12:17:17.783Z,101710.16
2022-08-03T12:19:46.395Z,101719.41
2022-08-03T12:22:14.647Z,101709.13
2022-08-03T12:24:43.270Z,101711.84
2022-08-03T12:27:10.982Z,101712.69
2022-08-03T12:29:39.652Z,101720.13
2022-08-03T12:32:07.269Z,101717.25
2022-08-03T12:34:50.746Z,101719.97
2022-08-03T12:37:23.544Z,101719.88
2022-08-03T12:40:10.206Z,101714.44
2022-08-03T12:42:39.718Z,101712.84
2022-08-03T12:45:24.319Z,101715.66
2022-08-03T12:48:13.201Z,101713.81
2022-08-03T12:50:41.368Z,101704.09
2022-08-03T12:53:10.357Z,101711.19
2022-08-03T12:55:57.311Z,101717.47
2022-08-03T12:58:34.905Z,101722.88
2022-08-03T13:01:10.085Z,101716.50
2022-08-03T13:03:49.789Z,101719.22
2022-08-03T13:06:23.739Z,101723.16
2022-08-03T13:09:03.784Z,101721.53
2022-08-03T13:11:57.982Z,101722.84
2022-08-03T13:14:20.210Z,101723.63
2022-08-03T13:16:50.808Z,101716.50
2022-08-03T13:19:25.530Z,101712.69
2022-08-03T13:22:04.313Z,101718.00
2022-08-03T13:24:33.268Z,101722.75
2022-08-03T13:28:02.255Z,101713.41
2022-08-03T13:29:59.170Z,101708.34
2022-08-03T13:32:26.847Z,101702.00
2022-08-03T13:34:54.629Z,101691.00
2022-08-03T13:37:22.571Z,101704.25
2022-08-03T13:39:59.246Z,101705.38
2022-08-03T13:42:30.511Z,101709.94
2022-08-03T13:44:59.370Z,101707.50
2022-08-03T13:47:27.448Z,101694.81
2022-08-03T13:50:01.485Z,101698.19
2022-08-03T13:52:31.648Z,101690.16
2022-08-03T13:55:00.204Z,101686.97
2022-08-03T13:58:02.973Z,101693.81
2022-08-03T14:00:26.632Z,101696.78
2022-08-03T14:03:03.804Z,101697.88
2022-08-03T14:05:33.912Z,101686.78
2022-08-03T14:08:04.367Z,101693.41
2022-08-03T14:10:34.651Z,101688.09
2022-08-03T14:13:03.168Z,101687.81
2022-08-03T14:15:31.464Z,101700.69
2022-08-03T14:17:59.280Z,101697.63
2022-08-03T14:20:38.071Z,101695.84
2022-08-03T14:23:15.385Z,101696.13
2022-08-03T14:25:50.218Z,101693.41
2022-08-03T14:28:21.344Z,101693.63
2022-08-03T14:30:49.158Z,101691.72
2022-08-03T14:33:16.954Z,101682.50
2022-08-03T14:35:44.847Z,101687.19
2022-08-03T14:38:12.491Z,101679.31
2022-08-03T14:40:43.494Z,101674.84
2022-08-03T14:43:11.387Z,101678.28
2022-08-03T14:45:39.861Z,101678.47
2022-08-03T14:50:33.884Z,101669.22
2022-08-03T14:50:56.827Z,101678.66
2022-08-03T14:53:24.609Z,101683.47
2022-08-03T14:55:53.478Z,101687.94
2022-08-03T14:58:22.168Z,101680.34
2022-08-03T15:00:51.375Z,101674.34
2022-08-03T15:03:23.412Z,101684.22
2022-08-03T15:05:56.750Z,101677.28
2022-08-03T15:08:25.868Z,101674.09
2022-08-03T15:10:54.854Z,101672.78
2022-08-03T15:13:22.844Z,101675.19
2022-08-03T15:15:51.877Z,101667.44
2022-08-03T15:18:20.359Z,101677.88
2022-08-03T15:20:50.534Z,101677.59
2022-08-03T15:23:18.680Z,101674.94
2022-08-03T15:26:28.842Z,101675.44
2022-08-03T15:28:34.509Z,101678.00
2022-08-03T15:31:06.501Z,101676.53
2022-08-03T15:33:35.317Z,101672.81
2022-08-03T15:36:04.871Z,101670.25
2022-08-03T15:38:32.413Z,101675.88
2022-08-03T15:41:00.415Z,101672.31
2022-08-03T15:43:28.055Z,101667.38
2022-08-03T15:46:26.546Z,101675.88
2022-08-03T15:48:43.503Z,101672.31
2022-08-03T15:51:11.578Z,101675.66
2022-08-03T15:53:39.693Z,101670.75
2022-08-03T15:56:12.318Z,101681.75
2022-08-03T15:59:04.450Z,101668.56
2022-08-03T16:01:30.974Z,101666.91
2022-08-03T16:03:58.703Z,101663.34
2022-08-03T16:06:29.748Z,101662.03
2022-08-03T16:09:23.000Z,101654.09
2022-08-03T16:11:53.731Z,101656.13
2022-08-03T16:14:34.756Z,101655.28
2022-08-03T16:17:05.695Z,101664.59
2022-08-03T16:19:34.023Z,101647.03
2022-08-03T16:22:03.378Z,101650.41
2022-08-03T16:24:31.334Z,101650.78
2022-08-03T16:26:59.473Z,101653.28
2022-08-03T16:29:29.545Z,101657.22
2022-08-03T16:31:57.063Z,101659.78
2022-08-03T16:34:24.850Z,101656.06
2022-08-03T16:36:52.640Z,101659.94
2022-08-03T16:39:20.649Z,101654.09
2022-08-03T16:41:54.564Z,101655.25
2022-08-03T16:44:30.688Z,101651.53
2022-08-03T16:47:00.028Z,101650.03
2022-08-03T16:49:55.543Z,101651.25
2022-08-03T16:52:16.574Z,101664.94
2022-08-03T16:54:50.581Z,101654.78
2022-08-03T16:57:58.834Z,101651.41
2022-08-03T17:00:12.238Z,101661.22
2022-08-03T17:03:04.146Z,101658.88
2022-08-03T17:05:32.669Z,101654.09
2022-08-03T17:08:15.880Z,101656.22
2022-08-03T17:10:45.112Z,101667.19
2022-08-03T17:13:21.490Z,101660.09
2022-08-03T17:15:57.636Z,101663.34
2022-08-03T17:18:36.111Z,101666.91
2022-08-03T17:21:05.928Z,101665.34
2022-08-03T17:23:48.607Z,101667.06
2022-08-03T17:26:21.847Z,101666.69
2022-08-03T17:28:57.499Z,101666.03
2022-08-03T17:31:31.497Z,101659.31
2022-08-03T17:34:04.367Z,101662.84
2022-08-03T17:37:02.188Z,101661.50
2022-08-03T17:39:41.880Z,101667.09
2022-08-03T17:44:58.846Z,101669.13
2022-08-03T17:47:42.799Z,101673.53
2022-08-03T17:50:24.275Z,101670.81
2022-08-03T17:56:40.860Z,101675.22
2022-08-03T17:59:50.623Z,101687.91
2022-08-03T18:03:16.186Z,101688.91
2022-08-03T18:06:10.670Z,101687.25
2022-08-03T18:08:38.930Z,101686.06
2022-08-03T18:11:14.394Z,101690.81
2022-08-03T18:13:53.313Z,101694.84
2022-08-03T18:16:34.492Z,101693.34
2022-08-03T18:19:09.241Z,101696.56
2022-08-03T18:22:02.843Z,101699.25
2022-08-03T18:24:26.458Z,101701.31
2022-08-03T18:26:55.760Z,101692.19
2022-08-03T18:29:27.576Z,101697.09
2022-08-03T18:32:02.749Z,101694.25
2022-08-03T18:34:34.614Z,101701.50
2022-08-03T18:37:07.794Z,101711.75
2022-08-03T18:39:50.055Z,101703.84
2022-08-03T18:42:20.714Z,101714.66
2022-08-03T18:44:57.580Z,101713.47
2022-08-03T18:47:50.927Z,101710.25
2022-08-03T18:50:36.044Z,101708.75
2022-08-03T18:54:03.026Z,101706.03
2022-08-03T18:56:26.791Z,101708.09
2022-08-03T18:59:02.549Z,101699.47
2022-08-03T19:04:35.136Z,101697.28
2022-08-03T19:07:07.020Z,101700.50
2022-08-03T19:09:52.374Z,101701.34
2022-08-03T19:12:33.936Z,101701.50
2022-08-03T19:15:12.369Z,101704.53
2022-08-03T19:17:43.626Z,101698.47
2022-08-03T19:20:25.201Z,101702.50
2022-08-03T19:22:55.598Z,101698.97
2022-08-03T19:25:34.481Z,101702.19
2022-08-03T19:28:08.841Z,101706.56
2022-08-03T19:30:40.251Z,101713.81
2022-08-03T19:33:14.358Z,101708.09
2022-08-03T19:38:32.469Z,101710.94
2022-08-03T19:41:03.675Z,101722.56
2022-08-03T19:43:53.492Z,101715.81
2022-08-03T19:46:30.593Z,101723.72
2022-08-03T19:49:15.022Z,101720.38
2022-08-03T19:52:01.960Z,101723.72
2022-08-03T19:54:45.498Z,101722.16
2022-08-03T19:57:24.042Z,101727.03
2022-08-03T19:59:53.867Z,101725.69
2022-08-03T20:02:26.151Z,101714.53
2022-08-03T20:05:00.054Z,101730.38
2022-08-03T20:07:30.862Z,101734.41
2022-08-03T20:10:05.983Z,101733.75
2022-08-03T20:12:39.040Z,101728.50
2022-08-03T20:15:09.232Z,101741.97
2022-08-03T20:17:55.115Z,101737.41
2022-08-03T20:20:27.932Z,101740.72
2022-08-03T20:22:58.040Z,101735.34
2022-08-03T20:25:38.381Z,101737.50
2022-08-03T20:28:14.914Z,101731.94
2022-08-03T20:30:47.200Z,101733.75
2022-08-03T20:33:18.443Z,101736.28
2022-08-03T20:35:49.525Z,101734.75
2022-08-03T20:38:19.228Z,101738.56
2022-08-03T20:40:48.435Z,101740.44
2022-08-03T20:43:17.027Z,101744.03
2022-08-03T20:46:00.945Z,101747.91
2022-08-03T20:48:37.397Z,101747.22
2022-08-03T20:51:06.081Z,101747.22
2022-08-03T20:53:59.698Z,101744.00
2022-08-03T20:56:35.813Z,101758.47
2022-08-03T20:59:07.278Z,101754.06
2022-08-03T21:01:44.352Z,101753.50
2022-08-03T21:04:13.577Z,101757.94
2022-08-03T21:06:56.069Z,101757.09
2022-08-03T21:09:33.471Z,101752.50
2022-08-03T21:12:12.083Z,101751.34
2022-08-03T21:13:02.506Z,101708.09
2022-08-03T21:13:04.462Z,101668.78
2022-08-03T21:13:04.598Z,101674.88
2022-08-03T21:13:09.323Z,101705.06
2022-08-03T21:14:51.890Z,101758.75
2022-08-03T21:17:39.160Z,101754.19
2022-08-03T21:20:10.492Z,101757.72
2022-08-03T21:22:42.452Z,101753.66
2022-08-03T21:25:10.829Z,101751.13
2022-08-03T21:27:38.619Z,101761.91
2022-08-03T21:30:10.748Z,101759.66
2022-08-03T21:32:42.030Z,101762.84
2022-08-03T21:35:10.775Z,101762.00
2022-08-03T21:37:42.163Z,101759.22
2022-08-03T21:40:14.091Z,101763.84
2022-08-03T21:42:45.351Z,101762.84
2022-08-03T21:45:17.375Z,101768.34
2022-08-03T21:47:45.892Z,101763.25
2022-08-03T21:50:13.981Z,101763.94
2022-08-03T21:52:45.375Z,101755.19
2022-08-03T21:55:18.630Z,101765.03
2022-08-03T21:57:53.593Z,101765.03
2022-08-03T22:00:23.368Z,101764.13
2022-08-03T22:02:55.360Z,101756.03
2022-08-03T22:05:28.964Z,101758.19
2022-08-03T22:08:13.412Z,101768.19
2022-08-03T22:10:44.001Z,101768.44
2022-08-03T22:13:14.009Z,101757.88
2022-08-03T22:15:41.872Z,101757.06
2022-08-03T22:18:09.704Z,101762.56
2022-08-03T22:20:37.489Z,101772.03
2022-08-03T22:23:06.981Z,101763.53
2022-08-03T22:25:39.376Z,101759.63
2022-08-03T22:28:10.107Z,101765.84
2022-08-03T22:30:39.159Z,101760.47
2022-08-03T22:33:11.395Z,101768.38
2022-08-03T22:35:47.506Z,101763.06
2022-08-03T22:38:18.921Z,101766.06
2022-08-03T22:40:51.059Z,101759.47
2022-08-03T22:43:27.440Z,101760.00
2022-08-03T22:46:09.888Z,101757.63
2022-08-03T22:48:41.836Z,101764.59
2022-08-03T22:51:10.105Z,101756.53
2022-08-03T22:53:38.815Z,101757.84
2022-08-03T22:56:06.944Z,101762.53
2022-08-03T22:58:34.605Z,101758.31
2022-08-03T23:01:06.591Z,101760.28
2022-08-03T23:04:00.662Z,101759.19
2022-08-03T23:06:27.229Z,101751.28
2022-08-03T23:08:55.571Z,101758.88
2022-08-03T23:11:24.383Z,101756.66
2022-08-03T23:13:54.342Z,101754.28
2022-08-03T23:16:29.247Z,101753.56
2022-08-03T23:19:00.242Z,101754.16
2022-08-03T23:22:00.820Z,101753.25
2022-08-03T23:24:33.975Z,101752.38
2022-08-03T23:27:04.037Z,101745.59
2022-08-03T23:29:35.094Z,101744.22
2022-08-03T23:32:04.374Z,101747.59
2022-08-03T23:34:51.917Z,101739.44
2022-08-03T23:37:20.618Z,101746.22
2022-08-03T23:39:49.701Z,101741.69
2022-08-03T23:42:19.484Z,101745.34
2022-08-03T23:44:53.021Z,101743.66
2022-08-03T23:47:20.818Z,101741.44
2022-08-03T23:49:49.860Z,101735.78
2022-08-03T23:52:43.999Z,101730.41
2022-08-03T23:55:30.271Z,101736.63
2022-08-03T23:58:19.598Z,101727.28
